createdAt,value
2022-10-19T00:01:39.974Z,33.60
2022-10-19T00:04:30.800Z,37.35
2022-10-19T00:07:20.816Z,35.58
2022-10-19T00:10:13.243Z,34.80
2022-10-19T00:13:03.349Z,41.70
2022-10-19T00:15:53.151Z,39.85
2022-10-19T00:18:47.040Z,35.53
2022-10-19T00:21:40.552Z,41.28
2022-10-19T00:24:30.047Z,40.17
2022-10-19T00:27:19.346Z,37.92
2022-10-19T00:30:12.565Z,37.17
2022-10-19T00:33:02.380Z,34.45
2022-10-19T00:35:53.330Z,39.72
2022-10-19T00:38:43.750Z,36.40
2022-10-19T00:41:35.642Z,37.42
2022-10-19T00:44:31.654Z,42.15
2022-10-19T00:47:21.895Z,36.58
2022-10-19T00:50:11.441Z,45.92
2022-10-19T00:53:01.044Z,39.17
2022-10-19T00:55:50.342Z,44.78
2022-10-19T00:58:39.950Z,40.53
2022-10-19T01:01:33.387Z,47.08
2022-10-19T01:04:24.818Z,53.72
2022-10-19T01:07:21.609Z,46.33
2022-10-19T01:10:14.515Z,43.20
2022-10-19T01:13:45.307Z,42.28
2022-10-19T01:16:52.229Z,47.55
2022-10-19T01:20:17.166Z,49.80
2022-10-19T01:23:53.093Z,56.50
2022-10-19T01:27:18.192Z,55.85
2022-10-19T01:30:55.239Z,60.25
2022-10-19T01:34:33.237Z,69.85
2022-10-19T01:37:44.430Z,65.60
2022-10-19T01:40:44.618Z,56.55
2022-10-19T01:43:58.191Z,59.60
2022-10-19T01:47:15.858Z,47.72
2022-10-19T01:50:28.329Z,44.67
2022-10-19T01:53:26.741Z,51.63
2022-10-19T01:56:24.043Z,42.05
2022-10-19T01:59:14.797Z,40.55
2022-10-19T02:02:16.900Z,40.15
2022-10-19T02:05:09.695Z,38.17
2022-10-19T02:08:12.632Z,39.00
2022-10-19T02:11:07.469Z,34.97
2022-10-19T02:14:03.166Z,35.15
2022-10-19T02:17:08.509Z,37.15
2022-10-19T02:20:06.601Z,34.50
2022-10-19T02:22:59.468Z,36.13
2022-10-19T02:25:50.433Z,33.90
2022-10-19T02:28:44.571Z,34.05
2022-10-19T02:31:40.490Z,33.15
2022-10-19T02:34:31.610Z,44.83
2022-10-19T02:37:25.486Z,35.05
2022-10-19T02:40:25.988Z,47.15
2022-10-19T02:43:25.779Z,36.50
2022-10-19T02:47:05.890Z,36.85
2022-10-19T02:50:04.724Z,40.10
2022-10-19T02:53:02.808Z,40.05
2022-10-19T02:56:04.502Z,34.33
2022-10-19T02:59:07.577Z,37.92
2022-10-19T03:02:08.265Z,40.75
2022-10-19T03:05:09.994Z,35.53
2022-10-19T03:08:06.035Z,35.67
2022-10-19T03:10:58.891Z,33.85
2022-10-19T03:13:57.268Z,38.08
2022-10-19T03:16:51.891Z,36.15
2022-10-19T03:19:43.800Z,43.10
2022-10-19T03:22:48.339Z,34.90
2022-10-19T03:32:06.398Z,35.92
2022-10-19T03:34:57.226Z,35.00
2022-10-19T03:38:06.326Z,35.03
2022-10-19T03:41:05.983Z,32.95
2022-10-19T03:44:08.897Z,32.75
2022-10-19T03:47:20.605Z,31.08
2022-10-19T03:50:18.879Z,33.20
2022-10-19T03:53:11.767Z,30.05
2022-10-19T03:56:37.051Z,38.15
2022-10-19T03:59:33.669Z,34.20
2022-10-19T04:02:24.235Z,32.78
2022-10-19T04:05:17.871Z,33.20
2022-10-19T04:08:17.121Z,32.25
2022-10-19T04:11:13.317Z,32.03
2022-10-19T04:17:21.742Z,37.47
2022-10-19T04:20:14.279Z,41.58
2022-10-19T04:23:12.473Z,45.40
2022-10-19T04:26:15.084Z,41.35
2022-10-19T04:29:10.747Z,42.72
2022-10-19T04:32:04.689Z,39.45
2022-10-19T04:34:57.272Z,40.85
2022-10-19T04:38:03.536Z,36.22
2022-10-19T04:40:57.325Z,39.97
2022-10-19T04:43:58.161Z,32.13
2022-10-19T04:47:01.534Z,20.00
2022-10-19T04:49:57.749Z,13.43
2022-10-19T04:52:57.679Z,32.83
2022-10-19T04:55:56.285Z,11.93
2022-10-19T04:58:50.641Z,12.48
2022-10-19T05:01:57.826Z,22.25
2022-10-19T05:04:57.450Z,32.22
2022-10-19T05:07:56.032Z,34.08
2022-10-19T05:10:59.942Z,35.95
2022-10-19T05:13:56.746Z,51.80
2022-10-19T05:17:21.250Z,46.10
2022-10-19T05:20:24.803Z,49.92
2022-10-19T05:23:24.005Z,65.97
2022-10-19T05:26:47.363Z,57.88
2022-10-19T05:29:58.449Z,61.08
2022-10-19T05:33:01.608Z,57.25
2022-10-19T05:35:55.524Z,69.72
2022-10-19T05:38:59.226Z,79.00
2022-10-19T05:41:57.301Z,75.72
2022-10-19T05:45:06.108Z,73.70
2022-10-19T05:48:04.031Z,67.32
2022-10-19T05:51:05.220Z,68.00
2022-10-19T05:54:06.706Z,70.40
2022-10-19T05:57:06.926Z,67.93
2022-10-19T06:00:03.085Z,61.90
2022-10-19T06:03:07.530Z,60.97
2022-10-19T06:06:16.707Z,61.95
2022-10-19T06:09:13.347Z,65.07
2022-10-19T06:12:15.797Z,64.93
2022-10-19T06:15:20.126Z,60.10
2022-10-19T06:18:27.977Z,57.20
2022-10-19T06:21:46.443Z,52.80
2022-10-19T06:27:55.245Z,51.53
2022-10-19T06:30:55.061Z,53.72
2022-10-19T06:34:04.831Z,54.38
2022-10-19T06:37:02.538Z,51.42
2022-10-19T06:43:14.183Z,48.20
2022-10-19T06:46:13.853Z,47.17
2022-10-19T06:49:12.150Z,43.05
2022-10-19T06:52:13.060Z,48.55
2022-10-19T06:55:11.291Z,47.92
2022-10-19T06:58:14.625Z,51.85
2022-10-19T07:01:21.629Z,49.10
2022-10-19T07:04:25.225Z,50.50
2022-10-19T07:07:26.181Z,56.95
2022-10-19T07:10:36.278Z,52.78
2022-10-19T07:16:44.395Z,55.05
2022-10-19T07:19:40.709Z,56.42
2022-10-19T07:25:47.388Z,60.95
2022-10-19T07:28:52.183Z,62.53
2022-10-19T07:31:55.045Z,54.33
2022-10-19T07:34:51.649Z,56.35
2022-10-19T07:41:04.814Z,48.20
2022-10-19T07:44:34.955Z,50.40
2022-10-19T07:50:47.386Z,44.55
2022-10-19T07:53:46.669Z,41.35
2022-10-19T07:56:52.292Z,36.03
2022-10-19T07:59:58.367Z,39.35
2022-10-19T08:06:23.633Z,36.70
2022-10-19T08:09:51.063Z,30.58
2022-10-19T08:13:03.702Z,37.05
2022-10-19T08:16:03.840Z,34.20
2022-10-19T08:19:20.226Z,45.13
2022-10-19T08:22:34.057Z,39.45
2022-10-19T08:25:50.241Z,34.25
2022-10-19T08:28:46.637Z,30.05
2022-10-19T08:31:56.270Z,32.13
2022-10-19T08:35:45.063Z,30.38
2022-10-19T08:38:58.696Z,27.27
2022-10-19T08:42:26.261Z,29.73
2022-10-19T08:45:50.171Z,27.42
2022-10-19T08:48:50.557Z,22.83
2022-10-19T08:52:00.384Z,22.05
2022-10-19T08:54:55.013Z,22.45
2022-10-19T08:58:07.191Z,32.53
2022-10-19T09:01:37.982Z,25.63
2022-10-19T09:05:22.277Z,35.05
2022-10-19T09:08:30.306Z,35.53
2022-10-19T09:15:01.418Z,28.48
2022-10-19T09:18:08.192Z,25.98
2022-10-19T09:21:30.882Z,29.40
2022-10-19T09:25:18.550Z,26.77
2022-10-19T09:28:41.402Z,34.35
2022-10-19T09:31:49.156Z,26.75
2022-10-19T09:35:17.269Z,38.70
2022-10-19T09:38:15.104Z,34.13
2022-10-19T09:41:24.542Z,39.38
2022-10-19T09:44:30.245Z,39.30
2022-10-19T09:47:42.801Z,36.53
2022-10-19T09:51:02.295Z,33.45
2022-10-19T09:54:03.555Z,37.22
2022-10-19T09:57:40.494Z,48.38
2022-10-19T10:03:59.558Z,39.15
2022-10-19T10:07:18.191Z,33.35
2022-10-19T10:10:50.716Z,26.67
2022-10-19T10:13:57.858Z,27.40
2022-10-19T10:17:25.320Z,23.38
2022-10-19T10:20:49.930Z,23.80
2022-10-19T10:24:24.228Z,20.95
2022-10-19T10:27:32.706Z,44.25
2022-10-19T10:34:22.949Z,33.15
2022-10-19T10:37:31.607Z,33.47
2022-10-19T10:44:13.165Z,43.08
2022-10-19T10:50:58.956Z,48.50
2022-10-19T10:53:50.998Z,46.92
2022-10-19T10:56:55.367Z,59.17
2022-10-19T11:00:27.338Z,63.13
2022-10-19T11:03:56.201Z,52.58
2022-10-19T11:06:59.836Z,55.90
2022-10-19T11:10:10.097Z,51.33
2022-10-19T11:13:38.173Z,47.72
2022-10-19T11:16:45.830Z,45.55
2022-10-19T11:19:52.565Z,43.15
2022-10-19T11:23:20.000Z,37.08
2022-10-19T11:26:31.119Z,32.58
2022-10-19T11:29:58.073Z,30.13
2022-10-19T11:33:06.740Z,31.88
2022-10-19T11:36:29.881Z,30.13
2022-10-19T11:40:05.271Z,40.38
2022-10-19T11:43:11.050Z,31.65
2022-10-19T11:46:30.951Z,32.22
2022-10-19T11:49:48.968Z,30.48
2022-10-19T11:53:00.629Z,30.40
2022-10-19T11:56:17.823Z,28.00
2022-10-19T12:00:13.507Z,25.58
2022-10-19T12:03:44.273Z,26.33
2022-10-19T12:07:04.540Z,24.00
2022-10-19T12:10:43.054Z,21.90
2022-10-19T12:13:45.476Z,25.50
2022-10-19T12:16:57.391Z,25.58
2022-10-19T12:20:02.519Z,26.05
2022-10-19T12:23:34.352Z,25.15
2022-10-19T12:26:53.316Z,27.92
2022-10-19T12:29:54.620Z,27.00
2022-10-19T12:33:35.652Z,24.92
2022-10-19T12:37:06.194Z,24.75
2022-10-19T12:40:48.494Z,20.77
2022-10-19T12:43:53.641Z,21.05
2022-10-19T12:46:53.093Z,18.55
2022-10-19T12:50:02.946Z,19.02
2022-10-19T12:53:22.585Z,19.00
2022-10-19T12:56:44.061Z,17.70
2022-10-19T12:59:52.924Z,16.02
2022-10-19T13:02:48.295Z,19.88
2022-10-19T13:06:10.863Z,18.73
2022-10-19T13:09:13.432Z,18.88
2022-10-19T13:12:31.790Z,16.67
2022-10-19T13:16:01.864Z,17.95
2022-10-19T13:19:27.520Z,18.38
2022-10-19T13:26:46.381Z,15.40
2022-10-19T13:29:57.223Z,15.75
2022-10-19T13:32:53.293Z,14.32
2022-10-19T13:36:35.751Z,17.98
2022-10-19T13:39:54.358Z,15.18
2022-10-19T13:43:09.981Z,13.82
2022-10-19T13:46:30.808Z,14.70
2022-10-19T13:50:08.431Z,16.48
2022-10-19T14:00:30.890Z,17.20
2022-10-19T14:03:58.543Z,18.88
2022-10-19T14:08:07.238Z,14.00
2022-10-19T14:11:26.268Z,15.63
2022-10-19T14:14:53.145Z,18.63
2022-10-19T14:18:01.261Z,15.10
2022-10-19T14:21:11.929Z,18.67
2022-10-19T14:24:22.898Z,17.02
2022-10-19T14:27:21.085Z,18.10
2022-10-19T14:30:29.019Z,16.60
2022-10-19T14:33:19.451Z,15.43
2022-10-19T14:36:21.821Z,19.23
2022-10-19T14:39:43.160Z,17.20
2022-10-19T14:42:47.418Z,18.45
2022-10-19T14:45:40.975Z,22.00
2022-10-19T14:48:33.349Z,23.77
2022-10-19T14:51:44.503Z,20.88
2022-10-19T14:54:38.045Z,17.77
2022-10-19T14:57:35.562Z,19.45
2022-10-19T15:00:28.762Z,17.52
2022-10-19T15:03:28.552Z,15.75
2022-10-19T15:06:27.354Z,16.77
2022-10-19T15:09:47.733Z,13.48
2022-10-19T15:12:42.773Z,12.88
2022-10-19T15:15:35.892Z,13.75
2022-10-19T15:21:38.692Z,12.55
2022-10-19T15:24:31.747Z,12.10
2022-10-19T15:27:24.915Z,12.38
2022-10-19T15:30:21.037Z,12.90
2022-10-19T15:33:17.309Z,13.65
2022-10-19T15:36:22.258Z,9.75
2022-10-19T15:39:32.854Z,14.32
2022-10-19T15:42:47.082Z,11.40
2022-10-19T15:45:40.794Z,13.90
2022-10-19T15:48:52.291Z,14.02
2022-10-19T15:51:50.695Z,11.15
2022-10-19T15:54:45.423Z,11.23
2022-10-19T15:57:40.753Z,14.82
2022-10-19T16:00:38.900Z,10.80
2022-10-19T16:03:32.387Z,14.30
2022-10-19T16:06:24.628Z,12.55
2022-10-19T16:09:23.342Z,12.38
2022-10-19T16:12:16.567Z,15.23
2022-10-19T16:15:08.651Z,12.38
2022-10-19T16:18:05.057Z,11.45
2022-10-19T16:20:55.227Z,13.63
2022-10-19T16:23:46.132Z,14.48
2022-10-19T16:26:37.361Z,18.63
2022-10-19T16:29:30.764Z,23.15
2022-10-19T16:32:21.309Z,20.63
2022-10-19T16:35:15.662Z,22.30
2022-10-19T16:38:05.950Z,25.55
2022-10-19T16:40:55.977Z,18.45
2022-10-19T16:43:49.945Z,16.10
2022-10-19T16:46:40.464Z,16.88
2022-10-19T16:49:32.364Z,15.18
2022-10-19T16:52:23.066Z,15.75
2022-10-19T16:55:13.308Z,14.00
2022-10-19T16:58:04.028Z,19.10
2022-10-19T17:00:58.232Z,19.20
2022-10-19T17:03:52.384Z,21.67
2022-10-19T17:06:46.436Z,19.20
2022-10-19T17:09:42.111Z,22.00
2022-10-19T17:12:33.391Z,18.35
2022-10-19T17:15:42.133Z,16.88
2022-10-19T17:18:34.915Z,22.08
2022-10-19T17:21:28.189Z,27.15
2022-10-19T17:24:22.062Z,32.05
2022-10-19T17:27:12.962Z,31.48
2022-10-19T17:30:06.871Z,31.00
2022-10-19T17:32:56.989Z,33.58
2022-10-19T17:35:47.548Z,35.05
2022-10-19T17:38:39.905Z,31.77
2022-10-19T17:41:31.513Z,27.65
2022-10-19T17:44:24.504Z,25.95
2022-10-19T17:47:14.849Z,22.05
2022-10-19T17:50:04.998Z,22.30
2022-10-19T17:52:58.718Z,17.42
2022-10-19T17:55:49.140Z,17.63
2022-10-19T17:58:40.129Z,15.38
2022-10-19T18:01:31.174Z,15.90
2022-10-19T18:04:25.009Z,15.30
2022-10-19T18:07:15.182Z,17.15
2022-10-19T18:10:06.384Z,15.35
2022-10-19T18:12:56.691Z,15.48
2022-10-19T18:15:46.679Z,16.23
2022-10-19T18:18:40.585Z,13.70
2022-10-19T18:21:39.964Z,15.95
2022-10-19T18:24:32.136Z,16.83
2022-10-19T18:27:23.794Z,17.40
2022-10-19T18:30:14.401Z,17.42
2022-10-19T18:33:07.797Z,15.48
2022-10-19T18:36:00.164Z,20.05
2022-10-19T18:38:55.234Z,19.70
2022-10-19T18:41:45.382Z,18.75
2022-10-19T18:44:36.329Z,21.83
2022-10-19T18:47:26.372Z,23.58
2022-10-19T18:50:19.297Z,30.55
2022-10-19T18:53:09.396Z,26.50
2022-10-19T18:56:02.696Z,25.38
2022-10-19T18:58:53.753Z,26.92
2022-10-19T19:01:44.944Z,24.10
2022-10-19T19:04:35.615Z,25.48
2022-10-19T19:07:26.268Z,22.10
2022-10-19T19:10:18.915Z,26.48
2022-10-19T19:13:09.632Z,22.77
2022-10-19T19:16:01.029Z,21.73
2022-10-19T19:18:52.032Z,24.35
2022-10-19T19:21:45.180Z,22.77
2022-10-19T19:24:34.977Z,22.75
2022-10-19T19:27:31.432Z,18.63
2022-10-19T19:30:24.900Z,16.83
2022-10-19T19:33:19.322Z,20.60
2022-10-19T19:36:11.016Z,21.40
2022-10-19T19:39:01.252Z,18.95
2022-10-19T19:41:52.962Z,18.85
2022-10-19T19:44:45.773Z,18.08
2022-10-19T19:47:36.339Z,19.15
2022-10-19T19:50:26.779Z,20.25
2022-10-19T19:53:17.106Z,20.08
2022-10-19T19:56:12.036Z,19.35
2022-10-19T19:59:06.786Z,16.23
2022-10-19T20:01:57.244Z,16.88
2022-10-19T20:04:48.712Z,15.25
2022-10-19T20:07:39.755Z,14.73
2022-10-19T20:10:33.166Z,15.70
2022-10-19T20:13:23.398Z,16.17
2022-10-19T20:16:20.931Z,17.95
2022-10-19T20:19:14.614Z,24.17
2022-10-19T20:22:07.366Z,18.10
2022-10-19T20:24:57.338Z,15.60
2022-10-19T20:27:49.354Z,12.88
2022-10-19T20:30:39.420Z,13.32
2022-10-19T20:33:32.486Z,14.00
2022-10-19T20:36:27.424Z,12.13
2022-10-19T20:39:17.990Z,16.23
2022-10-19T20:42:07.901Z,15.32
2022-10-19T20:44:58.411Z,14.70
2022-10-19T20:47:50.343Z,22.08
2022-10-19T20:50:41.932Z,20.40
2022-10-19T20:53:32.021Z,25.80
2022-10-19T20:56:24.863Z,27.70
2022-10-19T20:59:23.734Z,31.05
2022-10-19T21:02:13.919Z,37.08
2022-10-19T21:05:04.450Z,40.80
2022-10-19T21:07:55.179Z,40.33
2022-10-19T21:10:45.639Z,48.10
2022-10-19T21:13:36.090Z,44.63
2022-10-19T21:16:31.601Z,43.65
2022-10-19T21:19:23.615Z,39.22
2022-10-19T21:22:17.054Z,32.78
2022-10-19T21:25:07.491Z,34.88
2022-10-19T21:27:58.636Z,30.77
2022-10-19T21:30:48.578Z,27.90
2022-10-19T21:33:57.015Z,28.05
2022-10-19T21:36:49.118Z,25.60
2022-10-19T21:39:50.133Z,27.08
2022-10-19T21:42:45.728Z,28.10
2022-10-19T21:45:44.670Z,35.17
2022-10-19T21:48:42.070Z,36.50
2022-10-19T21:51:43.961Z,32.88
2022-10-19T21:54:47.381Z,36.78
2022-10-19T21:57:37.206Z,35.38
2022-10-19T22:00:28.216Z,34.30
2022-10-19T22:03:21.124Z,35.00
2022-10-19T22:06:12.150Z,42.33
2022-10-19T22:09:02.621Z,39.63
2022-10-19T22:11:53.258Z,38.13
2022-10-19T22:14:46.222Z,38.67
2022-10-19T22:17:37.669Z,37.35
2022-10-19T22:20:27.825Z,34.40
2022-10-19T22:23:17.708Z,33.67
2022-10-19T22:26:18.258Z,34.92
2022-10-19T22:29:11.603Z,27.55
2022-10-19T22:32:01.515Z,30.30
2022-10-19T22:34:52.106Z,29.20
2022-10-19T22:37:42.026Z,28.92
2022-10-19T22:40:33.215Z,27.08
2022-10-19T22:43:22.730Z,33.75
2022-10-19T22:46:12.609Z,30.80
2022-10-19T22:49:02.394Z,29.92
2022-10-19T22:51:52.075Z,29.90
2022-10-19T22:54:44.085Z,32.75
2022-10-19T22:57:34.333Z,27.58
2022-10-19T23:00:24.194Z,28.33
2022-10-19T23:03:14.205Z,24.70
2022-10-19T23:06:04.534Z,24.80
2022-10-19T23:08:55.190Z,26.42
2022-10-19T23:11:46.114Z,25.70
2022-10-19T23:14:36.589Z,25.58
2022-10-19T23:17:33.026Z,31.63
2022-10-19T23:20:23.025Z,26.08
2022-10-19T23:23:16.098Z,28.25
2022-10-19T23:26:15.162Z,31.55
2022-10-19T23:29:07.218Z,30.30
2022-10-19T23:31:57.613Z,28.70
2022-10-19T23:34:52.014Z,34.20
2022-10-19T23:37:42.355Z,38.15
2022-10-19T23:40:34.555Z,38.88
2022-10-19T23:43:24.357Z,29.33
2022-10-19T23:46:13.582Z,35.22
2022-10-19T23:49:02.261Z,42.08
2022-10-19T23:51:52.594Z,41.17
2022-10-19T23:54:41.817Z,47.47
2022-10-19T23:57:30.890Z,40.40
